Time;durP1;ratioP1;P1;durP2;ratioP2;P2;SDS_P1;SDS_P2;PMS_P1;PMS_P2;Temp;Humidity;BMP_temperature;BMP_pressure;BME280_temperature;BME280_humidity;BME280_pressure;Samples;Min_cycle;Max_cycle;Signal;HPM_P1;HPM_P2
2022/10/18 00:02:07;;;;;;;11.90;5.50;;;11.80;99.90;;;;;;5047596;28;20043;-66
2022/10/18 00:04:32;;;;;;;10.52;5.35;;;11.80;99.90;;;;;;5048288;28;20025;-64
2022/10/18 00:06:59;;;;;;;13.23;5.47;;;11.80;99.90;;;;;;5048442;28;20029;-67
2022/10/18 00:09:26;;;;;;;12.13;5.55;;;11.70;99.90;;;;;;5050647;28;20171;-66
2022/10/18 00:11:52;;;;;;;8.85;5.22;;;11.80;99.90;;;;;;5048238;28;20041;-64
2022/10/18 00:14:17;;;;;;;19.20;5.70;;;11.90;99.90;;;;;;5048278;28;20634;-63
2022/10/18 00:16:44;;;;;;;18.75;5.75;;;11.90;99.90;;;;;;5046026;28;20033;-65
2022/10/18 00:19:10;;;;;;;11.95;5.38;;;11.90;99.90;;;;;;5049118;28;20051;-63
2022/10/18 00:21:35;;;;;;;16.63;5.95;;;11.80;99.90;;;;;;5050537;28;20021;-64
2022/10/18 00:24:01;;;;;;;14.77;5.80;;;11.80;99.90;;;;;;5049341;28;20040;-66
2022/10/18 00:26:29;;;;;;;18.02;6.72;;;11.80;99.90;;;;;;5050376;28;20033;-63
2022/10/18 00:29:00;;;;;;;22.25;6.55;;;11.80;99.90;;;;;;5048186;28;20033;-63
2022/10/18 00:31:29;;;;;;;11.93;5.75;;;11.80;99.90;;;;;;5048496;28;20049;-64
2022/10/18 00:34:00;;;;;;;15.13;5.45;;;11.80;99.90;;;;;;5032432;28;20029;-63
2022/10/18 00:36:28;;;;;;;15.27;5.65;;;11.70;99.90;;;;;;5034792;28;20043;-62
2022/10/18 00:38:54;;;;;;;13.90;5.45;;;11.70;99.90;;;;;;5048080;28;20029;-65
2022/10/18 00:41:22;;;;;;;11.18;5.43;;;11.70;99.90;;;;;;5049008;28;20607;-64
2022/10/18 00:44:03;;;;;;;10.00;5.47;;;11.60;99.90;;;;;;5048385;28;20056;-63
2022/10/18 00:46:34;;;;;;;9.38;5.07;;;11.60;99.90;;;;;;5048729;28;20029;-65
2022/10/18 00:49:26;;;;;;;19.27;5.43;;;11.60;99.90;;;;;;5049762;28;20041;-71
2022/10/18 00:52:00;;;;;;;9.88;4.60;;;11.50;99.90;;;;;;5049170;28;20052;-64
2022/10/18 00:54:28;;;;;;;8.18;5.00;;;11.60;99.90;;;;;;5048248;28;20060;-62
2022/10/18 00:56:54;;;;;;;9.10;5.18;;;11.50;99.90;;;;;;5049839;28;20029;-64
2022/10/18 00:59:20;;;;;;;13.38;4.40;;;11.50;99.90;;;;;;5048676;28;20928;-63
2022/10/18 01:01:46;;;;;;;15.68;4.57;;;11.40;99.90;;;;;;5047676;28;20029;-64
2022/10/18 01:04:14;;;;;;;16.02;4.78;;;11.40;99.90;;;;;;5048515;28;20033;-63
2022/10/18 01:07:12;;;;;;;10.90;4.50;;;11.40;99.90;;;;;;5047084;28;20094;-61
2022/10/18 01:09:50;;;;;;;12.07;4.40;;;11.40;99.90;;;;;;5047272;28;20068;-63
2022/10/18 01:12:34;;;;;;;14.30;5.05;;;11.40;99.90;;;;;;5046350;28;20041;-67
2022/10/18 01:15:12;;;;;;;11.70;4.63;;;11.40;99.90;;;;;;5047422;28;20550;-65
2022/10/18 01:17:37;;;;;;;14.10;4.50;;;11.40;99.90;;;;;;5047379;28;20025;-63
2022/10/18 01:20:06;;;;;;;9.60;5.18;;;11.30;99.90;;;;;;5047987;28;20029;-67
2022/10/18 01:22:49;;;;;;;14.90;5.85;;;11.30;99.90;;;;;;5047783;28;20040;-64
2022/10/18 01:25:47;;;;;;;10.07;5.25;;;11.30;99.90;;;;;;5042902;28;20033;-62
2022/10/18 01:28:28;;;;;;;11.88;5.47;;;11.30;99.90;;;;;;5031236;28;20468;-66
2022/10/18 01:31:00;;;;;;;12.50;4.82;;;11.30;99.90;;;;;;5045872;28;20051;-64
2022/10/18 01:33:49;;;;;;;11.98;5.20;;;11.40;99.90;;;;;;5047588;28;20043;-63
2022/10/18 01:36:38;;;;;;;10.32;4.75;;;11.30;99.90;;;;;;5048749;28;20120;-63
2022/10/18 01:39:19;;;;;;;7.57;4.93;;;11.40;99.90;;;;;;5046665;28;20033;-69
2022/10/18 01:41:45;;;;;;;;;;;11.40;99.90;;;;;;5048248;28;20060;-63
2022/10/18 01:44:16;;;;;;;10.88;4.97;;;11.30;99.90;;;;;;5044779;28;19928;-64
2022/10/18 01:46:43;;;;;;;;;;;11.30;99.90;;;;;;5049440;28;20481;-64
2022/10/18 01:49:08;;;;;;;11.18;5.20;;;11.30;99.90;;;;;;5046797;28;20340;-65
2022/10/18 01:51:34;;;;;;;7.28;4.82;;;11.30;99.90;;;;;;5047127;28;20037;-65
2022/10/18 01:54:00;;;;;;;8.50;4.95;;;11.30;99.90;;;;;;5048118;28;20086;-63
2022/10/18 01:56:48;;;;;;;7.18;4.72;;;11.40;99.90;;;;;;5046658;28;20037;-64
2022/10/18 01:59:43;;;;;;;9.70;4.40;;;11.40;99.90;;;;;;5044670;28;20044;-63
2022/10/18 02:02:46;;;;;;;14.52;5.05;;;11.30;99.90;;;;;;5033192;28;20155;-63
2022/10/18 02:05:21;;;;;;;13.52;4.95;;;11.40;99.90;;;;;;5060170;28;20075;-63
2022/10/18 02:07:59;;;;;;;8.93;5.38;;;11.40;99.90;;;;;;5047133;28;20155;-64
2022/10/18 02:10:31;;;;;;;10.40;5.10;;;11.50;99.90;;;;;;5047187;28;20039;-65
2022/10/18 02:12:58;;;;;;;14.68;4.72;;;11.50;99.90;;;;;;5047120;28;20040;-63
2022/10/18 02:15:32;;;;;;;9.60;4.40;;;11.60;99.90;;;;;;5040589;28;20044;-65
2022/10/18 02:17:59;;;;;;;10.80;4.70;;;11.60;99.90;;;;;;5048803;28;20039;-64
2022/10/18 02:20:28;;;;;;;13.57;4.80;;;11.60;99.90;;;;;;5044992;28;20114;-63
2022/10/18 02:22:56;;;;;;;11.57;4.85;;;11.70;99.90;;;;;;5046954;28;20492;-65
2022/10/18 02:25:27;;;;;;;9.85;4.43;;;11.70;99.90;;;;;;5044360;28;20124;-65
2022/10/18 02:27:54;;;;;;;9.70;4.53;;;11.60;99.90;;;;;;5042554;28;20033;-63
2022/10/18 02:30:43;;;;;;;8.15;4.40;;;11.50;99.90;;;;;;5043195;28;20428;-64
2022/10/18 02:33:17;;;;;;;9.85;4.50;;;11.60;99.90;;;;;;5037753;28;20037;-67
2022/10/18 02:35:55;;;;;;;9.77;4.43;;;11.60;99.90;;;;;;5044371;28;20024;-63
2022/10/18 02:38:24;;;;;;;11.70;4.55;;;11.50;99.90;;;;;;5045050;28;20041;-66
2022/10/18 02:40:50;;;;;;;9.65;4.18;;;11.50;99.90;;;;;;5041399;28;20046;-64
2022/10/18 02:43:15;;;;;;;11.23;5.13;;;11.50;99.90;;;;;;5042174;28;20053;-63
2022/10/18 02:45:41;;;;;;;9.80;5.10;;;11.50;99.90;;;;;;5047558;28;20048;-65
2022/10/18 02:48:08;;;;;;;15.52;4.60;;;11.60;99.90;;;;;;5046352;28;20059;-69
2022/10/18 02:50:33;;;;;;;14.07;4.55;;;11.60;99.90;;;;;;5046050;28;20083;-64
2022/10/18 02:52:59;;;;;;;8.32;4.47;;;11.60;99.90;;;;;;5046217;28;20151;-64
2022/10/18 02:55:25;;;;;;;14.02;4.85;;;11.70;99.90;;;;;;5044629;28;20423;-62
2022/10/18 02:57:50;;;;;;;9.27;4.78;;;11.70;99.90;;;;;;5039020;28;20099;-65
2022/10/18 03:00:16;;;;;;;10.75;5.03;;;11.70;99.90;;;;;;5028064;28;20033;-62
2022/10/18 03:02:42;;;;;;;16.60;5.22;;;11.80;99.90;;;;;;5043636;28;20490;-64
2022/10/18 03:05:07;;;;;;;11.38;4.90;;;11.80;99.90;;;;;;5046257;28;20032;-67
2022/10/18 03:07:33;;;;;;;11.73;4.78;;;11.80;99.90;;;;;;5045713;28;20067;-64
2022/10/18 03:09:58;;;;;;;13.63;4.90;;;11.80;99.90;;;;;;5048308;28;20047;-66
2022/10/18 03:12:24;;;;;;;12.25;4.95;;;11.80;99.90;;;;;;5044693;28;20082;-67
2022/10/18 03:14:50;;;;;;;14.10;5.18;;;11.80;99.90;;;;;;5046365;28;20104;-63
2022/10/18 03:17:15;;;;;;;17.13;5.18;;;11.80;99.90;;;;;;5046270;28;20057;-64
2022/10/18 03:19:41;;;;;;;12.90;5.18;;;11.80;99.90;;;;;;5046907;28;20128;-65
2022/10/18 03:22:06;;;;;;;11.82;5.10;;;11.80;99.90;;;;;;5046641;28;20057;-64
2022/10/18 03:24:32;;;;;;;8.38;4.50;;;11.80;99.90;;;;;;5046561;28;20125;-62
2022/10/18 03:26:58;;;;;;;10.52;4.72;;;11.80;99.90;;;;;;5047610;28;20021;-64
2022/10/18 03:29:23;;;;;;;11.90;4.80;;;11.90;99.90;;;;;;5046045;28;20592;-64
2022/10/18 03:31:49;;;;;;;9.18;4.22;;;11.90;99.90;;;;;;5048035;28;20025;-64
2022/10/18 03:34:16;;;;;;;16.23;4.65;;;11.80;99.90;;;;;;5045100;28;20444;-65
2022/10/18 03:36:42;;;;;;;9.45;4.55;;;11.80;99.90;;;;;;5045719;28;20119;-62
2022/10/18 03:39:08;;;;;;;8.75;4.70;;;11.80;99.90;;;;;;5046174;28;20435;-63
2022/10/18 03:41:34;;;;;;;8.45;4.57;;;11.80;99.90;;;;;;5047346;28;20025;-64
2022/10/18 03:43:59;;;;;;;12.77;4.30;;;11.90;99.90;;;;;;5045981;28;20047;-66
2022/10/18 03:46:25;;;;;;;8.50;4.20;;;11.90;99.90;;;;;;5047339;28;20390;-62
2022/10/18 03:48:51;;;;;;;9.00;4.32;;;11.90;99.90;;;;;;5046177;28;20295;-64
2022/10/18 03:51:16;;;;;;;6.50;4.22;;;11.90;99.90;;;;;;5049899;28;20024;-64
2022/10/18 03:53:42;;;;;;;10.15;4.88;;;11.90;99.90;;;;;;5051032;28;20079;-63
2022/10/18 03:56:07;;;;;;;10.40;4.45;;;12.00;99.90;;;;;;5049530;28;20477;-63
2022/10/18 03:58:33;;;;;;;8.77;4.28;;;11.90;99.90;;;;;;5050616;28;20648;-65
2022/10/18 04:00:59;;;;;;;7.97;4.63;;;11.90;99.90;;;;;;5050652;28;20028;-65
2022/10/18 04:03:24;;;;;;;12.77;4.63;;;11.90;99.90;;;;;;5045855;28;20060;-65
2022/10/18 04:05:50;;;;;;;11.13;4.75;;;12.00;99.90;;;;;;5049389;28;20359;-63
2022/10/18 04:08:16;;;;;;;13.70;4.47;;;12.00;99.90;;;;;;5046833;28;20433;-68
2022/10/18 04:10:42;;;;;;;12.88;4.97;;;12.00;99.90;;;;;;5043438;28;20082;-64
2022/10/18 04:13:08;;;;;;;14.40;4.50;;;11.90;99.90;;;;;;5045126;28;20052;-66
2022/10/18 04:15:34;;;;;;;11.48;4.28;;;12.00;99.90;;;;;;5043163;28;20119;-64
2022/10/18 04:18:00;;;;;;;7.82;4.50;;;11.90;99.90;;;;;;5050883;28;20057;-64
2022/10/18 04:20:26;;;;;;;16.17;5.10;;;12.00;99.90;;;;;;5049542;28;20485;-64
2022/10/18 04:22:54;;;;;;;9.65;4.55;;;12.00;99.90;;;;;;5050632;28;20036;-65
2022/10/18 04:25:20;;;;;;;12.00;5.25;;;11.90;99.90;;;;;;5047606;28;20032;-63
2022/10/18 04:27:46;;;;;;;15.27;4.60;;;11.90;99.90;;;;;;5050407;28;20021;-63
2022/10/18 04:30:11;;;;;;;12.98;4.30;;;11.90;99.90;;;;;;5050538;28;20116;-64
2022/10/18 04:32:37;;;;;;;11.25;4.47;;;12.00;99.90;;;;;;5050066;28;20048;-64
2022/10/18 04:35:03;;;;;;;12.40;4.68;;;12.00;99.90;;;;;;5049573;28;20064;-64
2022/10/18 04:37:29;;;;;;;12.48;4.15;;;12.00;99.90;;;;;;5046237;28;20571;-66
2022/10/18 04:39:55;;;;;;;8.85;4.00;;;11.90;99.90;;;;;;5051026;28;20108;-64
2022/10/18 04:42:21;;;;;;;9.00;4.35;;;12.00;99.90;;;;;;5048871;28;20029;-63
2022/10/18 04:44:46;;;;;;;7.68;4.25;;;12.00;99.90;;;;;;5048379;28;20056;-64
2022/10/18 04:47:12;;;;;;;14.38;4.57;;;12.00;99.90;;;;;;5049055;28;20037;-63
2022/10/18 04:49:38;;;;;;;9.88;4.40;;;12.10;99.90;;;;;;5049758;28;20430;-62
2022/10/18 04:52:03;;;;;;;10.18;4.90;;;12.10;99.90;;;;;;5048489;28;20028;-63
2022/10/18 04:54:29;;;;;;;14.07;4.68;;;12.10;99.90;;;;;;5048240;28;20102;-63
2022/10/18 04:56:55;;;;;;;10.60;4.72;;;12.10;99.90;;;;;;5048310;28;20390;-64
2022/10/18 04:59:20;;;;;;;9.55;4.60;;;12.10;99.90;;;;;;5045764;28;20037;-64
2022/10/18 05:01:46;;;;;;;11.85;4.80;;;12.10;99.90;;;;;;5050095;28;20185;-64
2022/10/18 05:04:11;;;;;;;8.98;4.50;;;12.10;99.90;;;;;;5047417;28;20042;-65
2022/10/18 05:06:37;;;;;;;8.93;4.80;;;12.20;99.90;;;;;;5040304;28;20195;-62
2022/10/18 05:09:03;;;;;;;19.55;4.47;;;12.20;99.90;;;;;;5043995;28;20044;-63
2022/10/18 05:11:28;;;;;;;13.77;5.78;;;12.20;99.90;;;;;;5045423;28;20043;-66
2022/10/18 05:13:54;;;;;;;13.07;4.80;;;12.10;99.90;;;;;;5041150;28;20040;-64
2022/10/18 05:16:20;;;;;;;9.27;4.40;;;12.10;99.90;;;;;;5043626;28;20029;-66
2022/10/18 05:18:45;;;;;;;13.05;4.78;;;12.00;99.90;;;;;;5052090;28;20028;-65
2022/10/18 05:21:11;;;;;;;18.00;5.05;;;12.00;99.90;;;;;;5042148;28;20048;-65
2022/10/18 05:23:37;;;;;;;9.20;4.60;;;12.10;99.90;;;;;;5043066;28;20684;-64
2022/10/18 05:26:05;;;;;;;13.20;4.40;;;12.10;99.90;;;;;;5043498;28;20029;-64
2022/10/18 05:28:31;;;;;;;12.43;5.07;;;12.10;99.90;;;;;;5052310;28;20151;-65
2022/10/18 05:31:01;;;;;;;10.93;6.05;;;12.20;99.90;;;;;;5055611;28;20040;-66
2022/10/18 05:33:27;;;;;;;14.27;5.75;;;12.20;99.90;;;;;;5054887;28;20036;-64
2022/10/18 05:35:53;;;;;;;8.10;4.72;;;12.20;99.90;;;;;;5056064;28;20037;-64
2022/10/18 05:38:19;;;;;;;14.93;5.80;;;12.20;99.90;;;;;;5042568;28;20040;-67
2022/10/18 05:40:44;;;;;;;13.15;5.90;;;12.20;99.90;;;;;;5041423;28;20033;-64
2022/10/18 05:43:10;;;;;;;13.40;5.82;;;12.20;99.90;;;;;;5042609;28;20045;-63
2022/10/18 05:45:35;;;;;;;15.15;5.78;;;12.30;99.90;;;;;;5040015;28;20139;-63
2022/10/18 05:48:01;;;;;;;14.73;6.40;;;12.40;99.90;;;;;;5043242;28;20532;-66
2022/10/18 05:50:27;;;;;;;14.18;6.07;;;12.50;99.90;;;;;;5043703;28;20071;-64
2022/10/18 05:52:56;;;;;;;22.30;6.25;;;12.50;99.90;;;;;;5038487;28;20059;-64
2022/10/18 05:55:22;;;;;;;13.15;4.40;;;12.60;99.90;;;;;;5041252;28;20568;-63
2022/10/18 05:57:50;;;;;;;10.63;5.07;;;12.50;99.90;;;;;;5040583;28;20175;-63
2022/10/18 06:00:17;;;;;;;11.63;4.72;;;12.50;99.90;;;;;;5042706;28;20044;-64
2022/10/18 06:02:43;;;;;;;11.32;4.93;;;12.40;99.90;;;;;;5042601;28;20149;-63
2022/10/18 06:05:09;;;;;;;20.00;4.80;;;12.30;99.90;;;;;;5040972;28;20039;-63
2022/10/18 06:07:34;;;;;;;12.60;5.07;;;12.30;99.90;;;;;;5039035;28;20033;-66
2022/10/18 06:10:00;;;;;;;15.40;5.10;;;12.20;99.90;;;;;;5044636;28;20032;-66
2022/10/18 06:12:26;;;;;;;12.38;5.43;;;12.20;99.90;;;;;;5038505;28;20040;-66
2022/10/18 06:14:52;;;;;;;15.43;5.07;;;12.20;99.90;;;;;;5038070;28;20897;-64
2022/10/18 06:17:18;;;;;;;11.32;5.03;;;12.10;99.90;;;;;;5038233;28;20086;-66
2022/10/18 06:19:43;;;;;;;18.42;5.80;;;12.20;99.90;;;;;;5039110;28;20040;-62
2022/10/18 06:22:12;;;;;;;10.38;5.10;;;12.20;99.90;;;;;;5038806;28;20072;-62
2022/10/18 06:24:37;;;;;;;11.75;5.70;;;12.20;99.90;;;;;;5039106;28;20033;-66
2022/10/18 06:27:07;;;;;;;12.63;5.35;;;12.30;99.90;;;;;;5038586;28;20438;-64
2022/10/18 06:29:37;;;;;;;11.82;5.00;;;12.30;99.90;;;;;;5039550;28;20452;-66
2022/10/18 06:32:04;;;;;;;10.75;5.38;;;12.30;99.90;;;;;;5040022;28;20033;-68
2022/10/18 06:34:30;;;;;;;12.05;5.35;;;12.30;99.90;;;;;;5039327;28;20037;-67
2022/10/18 06:36:56;;;;;;;11.63;5.43;;;12.20;99.90;;;;;;5039382;28;20033;-63
2022/10/18 06:39:22;;;;;;;14.15;5.82;;;12.30;99.90;;;;;;5039722;28;20072;-68
2022/10/18 06:41:47;;;;;;;18.70;6.05;;;12.30;99.90;;;;;;5037807;28;20541;-63
2022/10/18 06:44:13;;;;;;;12.27;5.95;;;12.30;99.90;;;;;;5039566;28;20056;-65
2022/10/18 06:46:43;;;;;;;15.63;5.90;;;12.30;99.90;;;;;;5038092;28;20079;-65
2022/10/18 06:49:10;;;;;;;15.27;6.43;;;12.30;99.90;;;;;;5039663;28;20659;-66
2022/10/18 06:51:36;;;;;;;13.70;6.13;;;12.30;99.90;;;;;;5039063;28;20025;-67
2022/10/18 06:54:02;;;;;;;20.48;6.32;;;12.30;99.90;;;;;;5039821;28;20033;-64
2022/10/18 06:56:28;;;;;;;16.73;7.88;;;12.30;99.90;;;;;;5037554;28;20028;-63
2022/10/18 06:58:54;;;;;;;22.48;7.82;;;12.40;99.90;;;;;;5039439;28;20048;-66
2022/10/18 07:01:20;;;;;;;19.48;9.35;;;12.50;99.90;;;;;;5039718;28;20832;-68
2022/10/18 07:03:48;;;;;;;19.88;9.15;;;12.50;99.90;;;;;;5036422;28;20033;-63
2022/10/18 07:06:16;;;;;;;24.25;8.68;;;12.60;99.90;;;;;;5038364;28;20833;-64
2022/10/18 07:08:42;;;;;;;18.88;7.72;;;12.70;99.90;;;;;;5038436;28;20041;-65
2022/10/18 07:11:13;;;;;;;13.05;6.72;;;12.80;99.90;;;;;;5039987;28;20036;-67
2022/10/18 07:13:39;;;;;;;19.70;5.82;;;13.00;99.90;;;;;;5037071;28;20041;-66
2022/10/18 07:16:11;;;;;;;16.77;5.28;;;13.00;99.90;;;;;;5045201;28;20363;-71
2022/10/18 07:18:38;;;;;;;12.77;5.70;;;13.00;99.90;;;;;;5043094;28;20525;-66
2022/10/18 07:21:08;;;;;;;15.80;5.97;;;13.20;99.90;;;;;;5046009;28;20040;-63
2022/10/18 07:23:36;;;;;;;22.10;6.93;;;13.20;99.90;;;;;;5046580;28;20120;-64
2022/10/18 07:26:10;;;;;;;14.05;6.50;;;13.30;99.90;;;;;;5051495;28;20433;-65
2022/10/18 07:28:36;;;;;;;9.70;5.75;;;13.50;99.90;;;;;;5048405;28;20033;-65
2022/10/18 07:31:06;;;;;;;13.45;5.97;;;13.60;99.90;;;;;;5052250;28;20040;-66
2022/10/18 07:33:33;;;;;;;11.88;6.32;;;13.80;99.90;;;;;;5045899;28;20044;-63
2022/10/18 07:36:02;;;;;;;18.70;6.15;;;13.90;99.90;;;;;;5044197;28;20549;-63
2022/10/18 07:38:28;;;;;;;16.98;5.80;;;14.10;99.90;;;;;;5031634;28;20029;-63
2022/10/18 07:40:59;;;;;;;11.27;5.55;;;14.30;99.90;;;;;;5032005;28;20034;-65
2022/10/18 07:43:25;;;;;;;17.52;5.43;;;14.60;99.90;;;;;;5031029;28;20061;-69
2022/10/18 07:45:54;;;;;;;13.25;5.63;;;14.70;99.90;;;;;;5031796;28;20064;-64
2022/10/18 07:48:20;;;;;;;16.52;6.03;;;15.00;99.90;;;;;;5035921;28;20037;-65
2022/10/18 07:50:46;;;;;;;16.52;6.00;;;15.10;99.90;;;;;;5050818;28;20056;-65
2022/10/18 07:53:12;;;;;;;12.15;5.63;;;15.30;99.90;;;;;;5051693;28;20033;-64
2022/10/18 07:55:37;;;;;;;13.00;5.78;;;15.50;99.90;;;;;;5049588;28;20036;-65
2022/10/18 07:58:03;;;;;;;14.63;5.82;;;15.70;99.90;;;;;;5051701;28;20029;-64
2022/10/18 08:00:29;;;;;;;15.18;5.70;;;15.90;99.90;;;;;;5050787;28;20814;-64
2022/10/18 08:02:58;;;;;;;14.05;5.72;;;16.00;99.90;;;;;;5049197;28;20112;-66
2022/10/18 08:05:25;;;;;;;21.88;7.53;;;16.20;99.90;;;;;;5050311;28;20519;-70
2022/10/18 08:07:51;;;;;;;14.63;5.70;;;16.40;99.90;;;;;;5051066;28;20465;-63
2022/10/18 08:10:18;;;;;;;11.82;5.50;;;16.60;99.90;;;;;;5051134;28;20044;-64
2022/10/18 08:12:43;;;;;;;10.20;5.40;;;16.80;99.90;;;;;;5050539;28;20049;-64
2022/10/18 08:15:09;;;;;;;13.82;5.78;;;17.00;99.90;;;;;;5051533;28;20029;-62
2022/10/18 08:17:35;;;;;;;12.07;5.63;;;17.10;99.90;;;;;;5050426;28;20025;-64
2022/10/18 08:20:01;;;;;;;16.52;6.07;;;17.20;99.90;;;;;;5050268;28;20029;-65
2022/10/18 08:22:26;;;;;;;14.00;6.10;;;17.20;99.90;;;;;;5050668;28;20039;-70
2022/10/18 08:24:52;;;;;;;17.08;5.75;;;17.30;99.90;;;;;;5050865;28;20469;-65
2022/10/18 08:27:17;;;;;;;12.43;5.65;;;17.60;99.90;;;;;;5049839;28;20366;-64
2022/10/18 08:29:43;;;;;;;10.07;5.47;;;17.70;99.90;;;;;;5049373;28;20052;-65
2022/10/18 08:32:09;;;;;;;12.23;5.50;;;17.80;99.90;;;;;;5050829;28;20035;-66
2022/10/18 08:34:35;;;;;;;10.48;5.00;;;17.90;99.90;;;;;;5049798;28;20029;-67
2022/10/18 08:37:01;;;;;;;12.48;5.38;;;17.90;99.90;;;;;;5050694;28;20025;-63
2022/10/18 08:39:27;;;;;;;16.10;5.43;;;18.00;99.90;;;;;;5050143;28;20036;-68
2022/10/18 08:42:29;;;;;;;15.52;5.85;;;18.10;99.90;;;;;;5050347;28;20021;-64
2022/10/18 08:44:55;;;;;;;9.35;5.05;;;18.10;99.90;;;;;;4976249;28;20524;-64
2022/10/18 08:47:28;;;;;;;13.13;5.40;;;18.20;99.90;;;;;;5031161;28;20025;-65
2022/10/18 08:50:04;;;;;;;12.60;5.38;;;18.30;99.90;;;;;;5030432;28;20452;-66
2022/10/18 08:52:59;;;;;;;11.02;5.25;;;18.40;99.90;;;;;;5029990;28;20029;-69
2022/10/18 08:55:37;;;;;;;11.93;5.57;;;18.50;99.90;;;;;;5030654;28;20026;-65
2022/10/18 08:58:16;;;;;;;18.17;5.70;;;18.50;99.90;;;;;;5040617;28;20029;-65
2022/10/18 09:00:57;;;;;;;11.65;5.13;;;18.60;99.90;;;;;;5048877;28;20044;-63
2022/10/18 09:03:40;;;;;;;9.95;5.03;;;18.70;99.90;;;;;;5050504;28;20024;-64
2022/10/18 09:06:15;;;;;;;14.95;4.85;;;18.80;99.90;;;;;;5050543;28;20040;-63
2022/10/18 09:08:51;;;;;;;12.68;4.75;;;18.90;99.90;;;;;;5049664;28;20121;-66
2022/10/18 09:11:31;;;;;;;10.43;4.40;;;19.10;99.90;;;;;;5050648;28;20033;-64
2022/10/18 09:14:31;;;;;;;20.02;5.45;;;19.20;99.90;;;;;;5048053;28;20049;-63
2022/10/18 09:17:10;;;;;;;9.45;4.43;;;19.20;99.90;;;;;;4988105;28;20066;-65
2022/10/18 09:20:27;;;;;;;9.20;4.60;;;19.10;99.90;;;;;;5041575;28;20048;-65
2022/10/18 09:23:08;;;;;;;12.55;4.35;;;19.00;99.90;;;;;;5023452;28;20041;-63
2022/10/18 09:25:47;;;;;;;8.13;4.80;;;19.20;99.90;;;;;;5049184;28;20032;-64
2022/10/18 09:28:12;;;;;;;11.65;4.13;;;19.40;99.90;;;;;;5048990;28;20040;-63
2022/10/18 09:30:53;;;;;;;16.42;4.28;;;19.70;99.90;;;;;;5048925;28;20474;-64
2022/10/18 09:34:01;;;;;;;11.32;5.20;;;19.90;99.90;;;;;;5049604;28;20025;-66
2022/10/18 09:36:35;;;;;;;8.02;4.68;;;20.00;99.90;;;;;;5049845;28;20036;-65
2022/10/18 09:39:13;;;;;;;6.82;4.00;;;20.00;99.90;;;;;;5049956;28;20032;-64
2022/10/18 09:42:00;;;;;;;12.02;4.25;;;20.10;99.90;;;;;;5048769;28;20128;-65
2022/10/18 09:44:38;;;;;;;17.65;4.55;;;20.10;99.90;;;;;;5036228;28;20060;-63
2022/10/18 09:47:15;;;;;;;9.35;4.22;;;20.10;99.90;;;;;;5049487;28;20129;-64
2022/10/18 09:49:49;;;;;;;12.13;4.72;;;20.40;99.90;;;;;;5047502;28;20504;-64
2022/10/18 09:52:40;;;;;;;13.15;4.38;;;20.50;99.90;;;;;;5049273;28;20087;-66
2022/10/18 09:55:18;;;;;;;18.95;4.63;;;20.40;99.90;;;;;;5047973;28;20469;-64
2022/10/18 09:57:50;;;;;;;9.55;4.55;;;20.60;99.90;;;;;;5048281;28;20140;-66
2022/10/18 10:00:32;;;;;;;8.70;3.88;;;20.80;99.90;;;;;;5049350;28;20028;-63
2022/10/18 10:03:00;;;;;;;8.20;4.32;;;20.80;99.90;;;;;;5048825;28;20109;-64
2022/10/18 10:05:26;;;;;;;12.45;4.28;;;20.90;99.90;;;;;;5048138;28;20102;-65
2022/10/18 10:08:00;;;;;;;10.57;3.92;;;20.90;99.90;;;;;;5048443;28;20512;-64
2022/10/18 10:10:28;;;;;;;11.00;3.65;;;21.00;99.90;;;;;;5049238;28;20033;-64
2022/10/18 10:13:14;;;;;;;10.15;4.05;;;20.90;99.90;;;;;;5048324;28;20040;-64
2022/10/18 10:15:54;;;;;;;11.82;4.72;;;20.80;99.90;;;;;;5048325;28;20032;-64
2022/10/18 10:18:21;;;;;;;;;;;20.60;99.90;;;;;;5049619;28;20035;-64
2022/10/18 10:20:56;;;;;;;9.38;4.20;;;20.50;99.90;;;;;;5047290;28;20008;-66
2022/10/18 10:23:27;;;;;;;7.97;3.88;;;20.50;99.90;;;;;;5048991;28;20037;-66
2022/10/18 10:25:58;;;;;;;10.75;4.38;;;20.40;99.90;;;;;;5048234;28;20036;-63
2022/10/18 10:28:30;;;;;;;14.38;4.30;;;20.50;99.90;;;;;;5048856;28;20040;-66
2022/10/18 10:31:28;;;;;;;10.38;4.30;;;20.80;99.90;;;;;;5047985;28;20032;-63
2022/10/18 10:34:02;;;;;;;6.15;4.05;;;21.00;99.90;;;;;;5034863;28;20497;-66
2022/10/18 10:36:29;;;;;;;15.98;4.45;;;21.00;99.90;;;;;;5048965;28;20048;-63
2022/10/18 10:39:17;;;;;;;7.93;4.18;;;20.80;99.90;;;;;;5047916;28;20100;-63
2022/10/18 10:41:47;;;;;;;12.85;4.82;;;20.70;99.90;;;;;;5047967;28;20064;-64
2022/10/18 10:44:35;;;;;;;7.50;3.90;;;20.70;99.90;;;;;;5048547;28;20049;-63
2022/10/18 10:47:02;;;;;;;11.40;4.45;;;20.60;99.90;;;;;;5048608;28;20037;-64
2022/10/18 10:49:37;;;;;;;11.80;4.25;;;20.50;99.90;;;;;;5047496;28;20095;-64
2022/10/18 10:52:03;;;;;;;13.90;4.25;;;20.40;99.90;;;;;;5048341;28;20528;-65
2022/10/18 10:54:35;;;;;;;7.63;4.30;;;20.30;99.90;;;;;;5048568;28;20870;-64
2022/10/18 10:57:11;;;;;;;13.35;4.60;;;20.60;99.90;;;;;;5048472;28;20112;-64
2022/10/18 10:59:49;;;;;;;10.05;4.05;;;21.00;99.90;;;;;;5051171;28;20151;-69
2022/10/18 11:02:19;;;;;;;14.02;5.07;;;21.30;99.90;;;;;;5052591;28;20104;-63
2022/10/18 11:04:46;;;;;;;9.90;3.97;;;21.50;99.90;;;;;;5050772;28;20112;-64
2022/10/18 11:07:18;;;;;;;10.32;4.35;;;21.60;99.90;;;;;;5051831;28;20116;-65
2022/10/18 11:09:50;;;;;;;10.18;4.13;;;21.30;99.90;;;;;;5051552;28;20477;-65
2022/10/18 11:12:27;;;;;;;11.30;4.85;;;21.70;99.90;;;;;;5052490;28;20033;-64
2022/10/18 11:15:09;;;;;;;9.98;4.60;;;21.50;99.90;;;;;;5050247;28;20028;-64
2022/10/18 11:17:42;;;;;;;8.45;4.10;;;21.10;99.90;;;;;;5052244;28;20373;-69
2022/10/18 11:20:18;;;;;;;19.55;5.05;;;20.90;99.90;;;;;;5050727;28;20101;-66
2022/10/18 11:22:48;;;;;;;10.60;4.60;;;20.90;99.90;;;;;;5051225;28;20434;-65
2022/10/18 11:25:16;;;;;;;12.85;3.97;;;20.70;99.90;;;;;;5050878;28;20778;-64
2022/10/18 11:28:00;;;;;;;16.67;5.70;;;20.60;99.90;;;;;;5051226;28;20033;-63
2022/10/18 11:30:36;;;;;;;16.27;4.30;;;20.90;99.90;;;;;;5052202;28;20055;-65
2022/10/18 11:33:01;;;;;;;7.03;4.03;;;21.30;99.90;;;;;;5051781;28;20032;-67
2022/10/18 11:36:03;;;;;;;8.73;4.38;;;21.60;99.90;;;;;;5051138;28;20033;-63
2022/10/18 11:38:29;;;;;;;12.77;3.90;;;21.80;99.90;;;;;;5052102;28;20060;-65
2022/10/18 11:41:38;;;;;;;9.32;3.97;;;21.90;99.90;;;;;;5051147;28;20098;-67
2022/10/18 11:44:25;;;;;;;7.60;3.85;;;22.10;99.90;;;;;;4989413;28;20054;-65
2022/10/18 11:47:03;;;;;;;10.23;4.03;;;21.80;99.90;;;;;;4988950;28;20081;-64
2022/10/18 11:49:32;;;;;;;10.00;4.10;;;21.80;99.90;;;;;;4988874;28;20050;-67
2022/10/18 11:52:24;;;;;;;14.70;3.97;;;21.70;99.90;;;;;;4988987;28;20262;-66
2022/10/18 11:54:55;;;;;;;8.30;3.90;;;21.80;99.90;;;;;;4989045;28;20491;-64
2022/10/18 11:57:37;;;;;;;11.50;3.90;;;22.20;99.90;;;;;;4988882;28;20069;-67
2022/10/18 12:00:18;;;;;;;9.00;4.53;;;22.00;99.90;;;;;;4989199;28;20038;-64
2022/10/18 12:03:04;;;;;;;10.15;3.88;;;21.90;99.90;;;;;;4988763;28;20034;-65
2022/10/18 12:05:31;;;;;;;11.27;3.85;;;22.10;99.90;;;;;;4988818;28;20081;-66
2022/10/18 12:08:28;;;;;;;8.55;3.95;;;22.40;99.90;;;;;;4988454;28;20323;-64
2022/10/18 12:10:57;;;;;;;12.30;3.60;;;22.20;99.90;;;;;;4987050;28;20038;-67
2022/10/18 12:13:37;;;;;;;6.68;3.80;;;21.50;99.90;;;;;;4989061;28;20038;-63
2022/10/18 12:16:04;;;;;;;;;;;21.30;99.90;;;;;;5050979;28;20029;-63
2022/10/18 12:18:31;;;;;;;7.13;3.97;;;21.60;99.90;;;;;;5050618;28;19995;-67
2022/10/18 12:20:58;;;;;;;8.25;4.07;;;22.10;99.90;;;;;;5049870;28;20408;-65
2022/10/18 12:23:56;;;;;;;7.22;3.72;;;22.30;99.90;;;;;;5050958;28;20039;-65
2022/10/18 12:26:23;;;;;;;7.53;4.07;;;22.00;99.90;;;;;;5016605;28;20057;-63
2022/10/18 12:29:16;;;;;;;10.93;4.00;;;21.40;99.90;;;;;;5050029;28;20114;-67
2022/10/18 12:31:50;;;;;;;9.27;3.67;;;21.40;99.90;;;;;;5050530;28;20037;-71
2022/10/18 12:34:15;;;;;;;12.82;3.88;;;21.60;99.90;;;;;;5049688;28;20029;-64
2022/10/18 12:37:10;;;;;;;7.38;3.75;;;21.50;99.90;;;;;;5050725;28;20071;-68
2022/10/18 12:39:42;;;;;;;9.63;4.20;;;20.90;99.90;;;;;;5051195;28;20025;-65
2022/10/18 12:42:21;;;;;;;11.77;3.88;;;20.60;99.90;;;;;;5050554;28;20059;-63
2022/10/18 12:44:48;;;;;;;8.30;3.80;;;20.80;99.90;;;;;;5049600;28;20049;-64
2022/10/18 12:47:24;;;;;;;9.65;4.03;;;20.90;99.90;;;;;;5050690;28;20033;-64
2022/10/18 12:49:59;;;;;;;8.70;3.90;;;20.70;99.90;;;;;;5048548;28;20041;-66
2022/10/18 12:52:28;;;;;;;15.02;4.13;;;20.50;99.90;;;;;;5050596;28;20040;-64
2022/10/18 12:55:19;;;;;;;16.38;4.10;;;20.40;99.90;;;;;;5049677;28;20091;-65
2022/10/18 12:57:51;;;;;;;12.80;4.63;;;20.60;99.90;;;;;;5046256;28;20363;-64
2022/10/18 13:00:29;;;;;;;7.70;3.88;;;21.00;99.90;;;;;;5050555;28;20480;-64
2022/10/18 13:03:15;;;;;;;6.15;3.67;;;21.20;99.90;;;;;;5048628;28;20029;-67